createdAt,value
2022-07-30T00:00:32.724Z,4.40
2022-07-30T00:03:00.919Z,4.63
2022-07-30T00:05:29.179Z,4.30
2022-07-30T00:07:57.329Z,4.23
2022-07-30T00:10:25.466Z,4.50
2022-07-30T00:12:53.630Z,4.07
2022-07-30T00:15:23.062Z,4.30
2022-07-30T00:17:51.251Z,5.00
2022-07-30T00:20:19.440Z,4.80
2022-07-30T00:22:47.913Z,5.27
2022-07-30T00:25:16.410Z,4.50
2022-07-30T00:27:45.427Z,5.00
2022-07-30T00:30:14.470Z,4.80
2022-07-30T00:32:45.995Z,4.93
2022-07-30T00:35:15.008Z,4.43
2022-07-30T00:37:43.128Z,4.37
2022-07-30T00:40:11.551Z,4.70
2022-07-30T00:42:41.549Z,5.00
2022-07-30T00:45:11.647Z,4.70
2022-07-30T00:47:40.707Z,5.00
2022-07-30T00:50:13.879Z,4.90
2022-07-30T00:52:43.085Z,5.10
2022-07-30T00:55:13.269Z,5.67
2022-07-30T00:57:42.109Z,4.80
2022-07-30T01:00:13.407Z,5.80
2022-07-30T01:02:42.689Z,4.70
2022-07-30T01:05:12.985Z,5.23
2022-07-30T01:07:41.609Z,4.60
2022-07-30T01:10:11.701Z,5.07
2022-07-30T01:12:40.505Z,4.63
2022-07-30T01:15:10.715Z,5.03
2022-07-30T01:17:39.584Z,5.30
2022-07-30T01:20:14.325Z,5.30
2022-07-30T01:22:52.348Z,5.10
2022-07-30T01:25:31.273Z,5.43
2022-07-30T01:28:05.162Z,5.00
2022-07-30T01:30:37.469Z,5.27
2022-07-30T01:33:07.164Z,4.80
2022-07-30T01:35:38.531Z,4.53
2022-07-30T01:38:08.307Z,4.80
2022-07-30T01:40:39.178Z,4.87
2022-07-30T01:43:09.664Z,4.97
2022-07-30T01:45:41.574Z,5.80
2022-07-30T01:48:14.623Z,4.67
2022-07-30T01:50:47.400Z,6.13
2022-07-30T01:53:18.599Z,5.30
2022-07-30T01:55:47.627Z,4.90
2022-07-30T01:58:20.497Z,5.20
2022-07-30T02:00:56.973Z,5.27
2022-07-30T02:03:26.162Z,4.97
2022-07-30T02:05:59.334Z,6.23
2022-07-30T02:08:36.142Z,5.30
2022-07-30T02:11:09.919Z,5.27
2022-07-30T02:13:46.118Z,4.80
2022-07-30T02:16:19.597Z,4.70
2022-07-30T02:18:58.600Z,5.77
2022-07-30T02:21:36.612Z,5.17
2022-07-30T02:24:09.124Z,8.40
2022-07-30T02:26:39.600Z,5.43
2022-07-30T02:29:11.642Z,5.27
2022-07-30T02:31:42.811Z,5.07
2022-07-30T02:34:14.250Z,5.20
2022-07-30T02:36:43.968Z,5.30
2022-07-30T02:39:14.316Z,4.80
2022-07-30T02:41:49.513Z,7.27
2022-07-30T02:44:22.351Z,5.57
2022-07-30T02:46:52.390Z,4.90
2022-07-30T02:49:40.969Z,5.50
2022-07-30T02:52:12.240Z,5.00
2022-07-30T02:54:43.028Z,5.70
2022-07-30T02:57:12.576Z,4.60
2022-07-30T02:59:44.663Z,5.53
2022-07-30T03:02:15.025Z,5.73
2022-07-30T03:04:44.429Z,5.70
2022-07-30T03:07:17.796Z,5.47
2022-07-30T03:09:50.945Z,7.33
2022-07-30T03:12:22.756Z,8.90
2022-07-30T03:14:54.516Z,5.20
2022-07-30T03:17:26.819Z,7.80
2022-07-30T03:19:56.505Z,4.90
2022-07-30T03:22:32.636Z,5.90
2022-07-30T03:25:03.601Z,6.53
2022-07-30T03:27:33.174Z,5.27
2022-07-30T03:30:04.242Z,7.20
2022-07-30T03:32:33.278Z,6.40
2022-07-30T03:35:06.389Z,5.53
2022-07-30T03:37:38.642Z,6.30
2022-07-30T03:40:09.067Z,5.60
2022-07-30T03:42:38.421Z,7.90
2022-07-30T03:45:09.949Z,5.60
2022-07-30T03:47:40.327Z,5.83
2022-07-30T03:50:09.268Z,5.90
2022-07-30T03:52:41.399Z,5.90
2022-07-30T03:55:14.042Z,6.10
2022-07-30T03:57:51.656Z,7.50
2022-07-30T04:00:28.573Z,6.63
2022-07-30T04:02:57.015Z,6.80
2022-07-30T04:05:47.296Z,6.70
2022-07-30T04:08:15.451Z,7.20
2022-07-30T04:10:45.249Z,7.50
2022-07-30T04:13:13.518Z,7.10
2022-07-30T04:16:05.895Z,6.73
2022-07-30T04:18:41.695Z,6.70
2022-07-30T04:21:16.497Z,8.47
2022-07-30T04:24:02.187Z,7.00
2022-07-30T04:26:34.910Z,6.73
2022-07-30T04:29:05.200Z,6.60
2022-07-30T04:31:40.144Z,6.90
2022-07-30T04:34:27.996Z,7.67
2022-07-30T04:36:56.218Z,7.50
2022-07-30T04:39:24.317Z,6.87
2022-07-30T04:41:52.652Z,8.33
2022-07-30T04:44:32.077Z,7.87
2022-07-30T04:47:20.854Z,7.63
2022-07-30T04:50:05.033Z,7.93
2022-07-30T04:52:34.310Z,8.10
2022-07-30T04:55:06.423Z,7.47
2022-07-30T04:57:37.939Z,8.67
2022-07-30T05:00:07.750Z,7.77
2022-07-30T05:02:42.397Z,8.70
2022-07-30T05:05:13.044Z,7.80
2022-07-30T05:07:42.033Z,7.60
2022-07-30T05:10:13.009Z,7.27
2022-07-30T05:12:42.847Z,7.03
2022-07-30T05:15:13.913Z,8.10
2022-07-30T05:17:43.487Z,6.53
2022-07-30T05:20:12.767Z,7.73
2022-07-30T05:22:54.919Z,7.67
2022-07-30T05:25:23.936Z,6.80
2022-07-30T05:27:56.768Z,8.17
2022-07-30T05:30:27.616Z,7.43
2022-07-30T05:33:01.376Z,6.90
2022-07-30T05:35:32.676Z,7.87
2022-07-30T05:38:01.025Z,7.10
2022-07-30T05:40:33.959Z,7.20
2022-07-30T05:43:20.815Z,7.70
2022-07-30T05:45:49.297Z,7.57
2022-07-30T05:48:19.626Z,7.13
2022-07-30T05:50:48.225Z,7.33
2022-07-30T05:53:16.738Z,7.50
2022-07-30T05:56:03.908Z,7.73
2022-07-30T05:58:50.746Z,7.57
2022-07-30T06:01:28.244Z,7.70
2022-07-30T06:04:00.643Z,7.97
2022-07-30T06:06:43.813Z,7.60
2022-07-30T06:09:12.124Z,7.70
2022-07-30T06:11:40.689Z,7.63
2022-07-30T06:14:09.662Z,7.13
2022-07-30T06:16:38.885Z,8.00
2022-07-30T06:19:08.674Z,8.33
2022-07-30T06:22:05.592Z,9.80
2022-07-30T06:24:35.315Z,8.27
2022-07-30T06:27:16.188Z,8.10
2022-07-30T06:29:44.613Z,8.67
2022-07-30T06:32:13.272Z,9.37
2022-07-30T06:34:43.258Z,8.50
2022-07-30T06:37:12.288Z,9.13
2022-07-30T06:39:57.701Z,8.20
2022-07-30T06:42:58.934Z,8.70
2022-07-30T06:45:44.856Z,9.00
2022-07-30T06:48:23.508Z,8.40
2022-07-30T06:50:53.078Z,10.17
2022-07-30T06:53:21.489Z,9.80
2022-07-30T06:56:18.482Z,9.70
2022-07-30T06:58:56.782Z,9.13
2022-07-30T07:01:43.350Z,9.07
2022-07-30T07:04:13.035Z,8.93
2022-07-30T07:06:43.584Z,8.83
2022-07-30T07:09:15.897Z,9.40
2022-07-30T07:11:51.325Z,9.13
2022-07-30T07:14:21.082Z,9.87
2022-07-30T07:16:49.970Z,9.50
2022-07-30T07:20:01.254Z,10.90
2022-07-30T07:22:27.314Z,11.37
2022-07-30T07:24:55.502Z,11.87
2022-07-30T07:27:27.785Z,11.10
2022-07-30T07:30:01.499Z,11.97
2022-07-30T07:32:37.140Z,12.43
2022-07-30T07:35:07.062Z,12.40
2022-07-30T07:37:39.852Z,11.83
2022-07-30T07:40:10.314Z,11.90
2022-07-30T07:42:43.078Z,11.10
2022-07-30T07:45:12.375Z,11.13
2022-07-30T07:47:53.129Z,13.00
2022-07-30T07:50:40.489Z,12.70
2022-07-30T07:53:14.327Z,12.63
2022-07-30T07:55:42.537Z,14.13
2022-07-30T07:58:13.618Z,12.20
2022-07-30T08:00:49.960Z,12.93
2022-07-30T08:03:19.697Z,12.03
2022-07-30T08:05:58.170Z,11.40
2022-07-30T08:09:07.443Z,11.83
2022-07-30T08:11:54.498Z,12.70
2022-07-30T08:14:48.178Z,13.50
2022-07-30T08:17:50.254Z,13.50
2022-07-30T08:20:22.514Z,13.23
2022-07-30T08:22:50.792Z,13.80
2022-07-30T08:25:21.732Z,13.60
2022-07-30T08:27:52.765Z,13.03
2022-07-30T08:30:21.683Z,14.00
2022-07-30T08:32:50.026Z,14.63
2022-07-30T08:35:18.206Z,16.27
2022-07-30T08:37:46.703Z,14.33
2022-07-30T08:40:16.134Z,13.80
2022-07-30T08:42:55.021Z,13.90
2022-07-30T08:45:34.520Z,13.47
2022-07-30T08:48:23.307Z,14.00
2022-07-30T08:50:52.258Z,12.50
2022-07-30T08:53:35.581Z,13.13
2022-07-30T08:56:05.927Z,13.43
2022-07-30T08:58:36.050Z,12.30
2022-07-30T09:01:05.109Z,11.33
2022-07-30T09:03:33.714Z,10.83
2022-07-30T09:06:04.897Z,10.60
2022-07-30T09:08:33.663Z,13.30
2022-07-30T09:11:02.511Z,10.97
2022-07-30T09:13:32.444Z,11.33
2022-07-30T09:16:04.432Z,9.30
2022-07-30T09:18:37.492Z,10.37
2022-07-30T09:21:16.949Z,9.50
2022-07-30T09:24:00.988Z,9.27
2022-07-30T09:26:56.172Z,10.17
2022-07-30T09:30:02.172Z,9.57
2022-07-30T09:32:51.793Z,10.40
2022-07-30T09:35:44.203Z,10.07
2022-07-30T09:38:12.865Z,8.40
2022-07-30T09:40:57.344Z,8.70
2022-07-30T09:43:46.205Z,9.20
2022-07-30T09:46:21.912Z,8.40
2022-07-30T09:48:53.065Z,8.60
2022-07-30T09:52:00.203Z,8.60
2022-07-30T09:54:51.673Z,8.00
2022-07-30T09:57:26.172Z,8.00
2022-07-30T09:59:58.054Z,8.07
2022-07-30T10:02:33.164Z,8.33
2022-07-30T10:05:21.984Z,8.40
2022-07-30T10:07:54.003Z,7.73
2022-07-30T10:10:25.207Z,7.20
2022-07-30T10:12:56.141Z,6.93
2022-07-30T10:15:26.404Z,7.23
2022-07-30T10:17:57.250Z,7.27
2022-07-30T10:20:45.739Z,7.10
2022-07-30T10:23:32.895Z,6.90
2022-07-30T10:26:40.619Z,7.70
2022-07-30T10:29:42.562Z,7.13
2022-07-30T10:32:11.582Z,6.80
2022-07-30T10:34:42.660Z,6.57
2022-07-30T10:37:15.760Z,7.23
2022-07-30T10:39:51.748Z,7.07
2022-07-30T10:42:35.903Z,7.17
2022-07-30T10:45:19.620Z,6.00
2022-07-30T10:47:49.554Z,6.20
2022-07-30T10:50:22.074Z,7.00
2022-07-30T10:52:53.939Z,6.10
2022-07-30T10:55:36.710Z,6.10
2022-07-30T10:58:07.780Z,6.00
2022-07-30T11:00:38.259Z,6.40
2022-07-30T11:03:22.214Z,5.50
2022-07-30T11:05:52.310Z,5.30
2022-07-30T11:08:42.799Z,6.00
2022-07-30T11:12:01.868Z,5.40
2022-07-30T11:15:07.269Z,4.60
2022-07-30T11:18:01.910Z,5.50
2022-07-30T11:20:30.576Z,5.40
2022-07-30T11:23:14.187Z,5.07
2022-07-30T11:25:51.787Z,5.27
2022-07-30T11:28:44.460Z,4.37
2022-07-30T11:32:07.422Z,5.60
2022-07-30T11:34:30.944Z,6.03
2022-07-30T11:37:21.932Z,5.67
2022-07-30T11:40:13.423Z,5.83
2022-07-30T11:42:43.723Z,5.07
2022-07-30T11:45:26.821Z,5.60
2022-07-30T11:47:56.266Z,5.77
2022-07-30T11:50:26.638Z,5.37
2022-07-30T11:52:56.356Z,4.90
2022-07-30T11:55:26.830Z,5.33
2022-07-30T11:57:56.902Z,5.27
2022-07-30T12:00:25.533Z,5.47
2022-07-30T12:02:53.841Z,4.40
2022-07-30T12:05:26.831Z,4.27
2022-07-30T12:07:59.185Z,4.80
2022-07-30T12:10:27.730Z,4.20
2022-07-30T12:13:08.696Z,4.03
2022-07-30T12:15:38.406Z,4.73
2022-07-30T12:20:57.761Z,4.10
2022-07-30T12:23:28.480Z,3.67
2022-07-30T12:25:56.671Z,3.97
2022-07-30T12:28:29.960Z,4.03
2022-07-30T12:30:59.490Z,4.13
2022-07-30T12:33:27.942Z,3.70
2022-07-30T12:35:58.047Z,6.13
2022-07-30T12:38:27.867Z,3.97
2022-07-30T12:40:59.434Z,4.00
2022-07-30T12:43:49.054Z,4.10
2022-07-30T12:46:19.799Z,4.30
2022-07-30T12:49:01.172Z,3.90
2022-07-30T12:51:38.651Z,4.57
2022-07-30T12:54:19.546Z,4.30
2022-07-30T12:56:59.638Z,5.93
2022-07-30T12:59:30.380Z,4.07
2022-07-30T13:02:00.511Z,3.83
2022-07-30T13:04:29.873Z,4.50
2022-07-30T13:07:05.141Z,4.73
2022-07-30T13:09:33.387Z,4.47
2022-07-30T13:12:01.533Z,4.27
2022-07-30T13:14:31.079Z,4.70
2022-07-30T13:17:00.580Z,4.40
2022-07-30T13:19:29.073Z,4.30
2022-07-30T13:21:57.159Z,5.00
2022-07-30T13:24:25.278Z,4.40
2022-07-30T13:26:53.514Z,4.67
2022-07-30T13:29:21.670Z,4.73
2022-07-30T13:31:52.621Z,5.13
2022-07-30T13:34:20.855Z,4.80
2022-07-30T13:36:48.991Z,4.73
2022-07-30T13:39:17.437Z,5.00
2022-07-30T13:41:45.633Z,4.57
2022-07-30T13:44:13.821Z,5.00
2022-07-30T13:46:41.988Z,5.10
2022-07-30T13:49:11.774Z,5.10
2022-07-30T13:51:39.945Z,5.07
2022-07-30T13:54:08.406Z,5.47
2022-07-30T13:56:40.896Z,4.90
2022-07-30T13:59:09.434Z,4.73
2022-07-30T14:01:38.171Z,4.80
2022-07-30T14:04:06.907Z,4.90
2022-07-30T14:06:36.702Z,4.93
2022-07-30T14:09:05.260Z,4.73
2022-07-30T14:11:33.624Z,4.60
2022-07-30T14:14:01.989Z,4.67
2022-07-30T14:16:45.499Z,4.90
2022-07-30T14:19:23.146Z,5.40
2022-07-30T14:21:54.592Z,5.40
2022-07-30T14:24:23.630Z,4.70
2022-07-30T14:26:57.387Z,5.03
2022-07-30T14:29:27.039Z,4.93
2022-07-30T14:31:55.377Z,4.80
2022-07-30T14:34:23.726Z,4.53
2022-07-30T14:36:53.389Z,4.33
2022-07-30T14:39:21.718Z,4.70
2022-07-30T14:41:52.491Z,4.60
2022-07-30T14:44:24.673Z,4.73
2022-07-30T14:46:53.195Z,4.97
2022-07-30T14:49:21.869Z,5.17
2022-07-30T14:51:51.098Z,5.20
2022-07-30T14:54:20.751Z,5.43
2022-07-30T14:56:49.086Z,4.80
2022-07-30T14:59:17.877Z,4.40
2022-07-30T15:01:47.895Z,4.37
2022-07-30T15:04:16.202Z,4.93
2022-07-30T15:06:44.373Z,4.73
2022-07-30T15:09:12.549Z,5.13
2022-07-30T15:12:07.864Z,5.10
2022-07-30T15:14:30.738Z,4.13
2022-07-30T15:17:03.896Z,4.37
2022-07-30T15:19:32.958Z,5.60
2022-07-30T15:22:02.942Z,5.20
2022-07-30T15:24:32.105Z,4.80
2022-07-30T15:27:01.842Z,4.57
2022-07-30T15:29:30.841Z,4.73
2022-07-30T15:32:01.006Z,4.50
2022-07-30T15:34:34.042Z,4.83
2022-07-30T15:37:03.237Z,4.70
2022-07-30T15:39:33.042Z,5.00
2022-07-30T15:42:03.875Z,5.80
2022-07-30T15:44:32.302Z,4.83
2022-07-30T15:47:01.102Z,4.93
2022-07-30T15:49:29.769Z,4.50
2022-07-30T15:52:00.705Z,4.63
2022-07-30T15:54:29.802Z,4.50
2022-07-30T15:57:01.318Z,4.20
2022-07-30T15:59:31.898Z,4.30
2022-07-30T16:02:00.577Z,4.47
2022-07-30T16:04:31.290Z,4.43
2022-07-30T16:07:00.665Z,4.73
2022-07-30T16:09:29.073Z,4.90
2022-07-30T16:11:57.427Z,4.80
2022-07-30T16:14:27.344Z,4.77
2022-07-30T16:16:56.966Z,5.20
2022-07-30T16:19:25.167Z,5.83
2022-07-30T16:21:53.683Z,4.40
2022-07-30T16:24:22.039Z,4.70
2022-07-30T16:26:50.877Z,4.73
2022-07-30T16:29:19.182Z,4.40
2022-07-30T16:31:47.568Z,4.40
2022-07-30T16:34:17.310Z,4.60
2022-07-30T16:36:51.295Z,5.07
2022-07-30T16:39:19.421Z,5.47
2022-07-30T16:41:47.554Z,4.80
2022-07-30T16:44:16.619Z,4.90
2022-07-30T16:46:44.776Z,4.67
2022-07-30T16:49:13.006Z,5.20
2022-07-30T16:51:42.796Z,5.10
2022-07-30T16:54:11.630Z,4.50
2022-07-30T16:56:39.802Z,4.97
2022-07-30T16:59:11.942Z,5.13
2022-07-30T17:01:42.062Z,4.90
2022-07-30T17:04:10.174Z,5.50
2022-07-30T17:06:39.933Z,4.80
2022-07-30T17:09:09.513Z,4.77
2022-07-30T17:11:46.944Z,5.70
2022-07-30T17:14:22.199Z,4.93
2022-07-30T17:16:51.068Z,5.63
2022-07-30T17:19:19.263Z,4.97
2022-07-30T17:21:47.431Z,5.30
2022-07-30T17:24:16.999Z,5.13
2022-07-30T17:26:46.610Z,4.87
2022-07-30T17:29:16.766Z,5.23
2022-07-30T17:31:46.359Z,5.50
2022-07-30T17:34:20.051Z,5.20
2022-07-30T17:36:52.297Z,5.17
2022-07-30T17:40:27.064Z,5.07
2022-07-30T17:42:11.884Z,5.00
2022-07-30T17:44:41.141Z,5.20
2022-07-30T17:47:14.345Z,6.30
2022-07-30T17:49:43.012Z,5.03
2022-07-30T17:52:11.352Z,5.10
2022-07-30T17:54:41.240Z,5.47
2022-07-30T17:57:09.814Z,5.27
2022-07-30T17:59:37.955Z,5.50
2022-07-30T18:02:06.618Z,5.00
2022-07-30T18:04:35.344Z,5.87
2022-07-30T18:07:04.080Z,5.30
2022-07-30T18:09:38.637Z,5.93
2022-07-30T18:12:10.013Z,6.77
2022-07-30T18:14:38.688Z,5.07
2022-07-30T18:17:10.107Z,6.30
2022-07-30T18:19:42.115Z,10.20
2022-07-30T18:22:10.669Z,8.80
2022-07-30T18:24:43.990Z,10.73
2022-07-30T18:27:14.393Z,14.40
2022-07-30T18:29:42.840Z,11.47
2022-07-30T18:32:11.025Z,6.07
2022-07-30T18:34:39.231Z,7.37
2022-07-30T18:37:07.352Z,8.47
2022-07-30T18:39:35.498Z,5.80
2022-07-30T18:42:04.537Z,5.33
2022-07-30T18:44:34.824Z,5.03
2022-07-30T18:47:03.195Z,5.10
2022-07-30T18:49:36.972Z,5.30
2022-07-30T18:52:07.445Z,4.90
2022-07-30T18:54:36.301Z,4.83
2022-07-30T18:57:05.096Z,5.13
2022-07-30T18:59:35.049Z,4.83
2022-07-30T19:02:04.637Z,5.07
2022-07-30T19:04:33.432Z,5.13
2022-07-30T19:07:01.738Z,5.60
2022-07-30T19:09:29.950Z,5.30
2022-07-30T19:11:58.204Z,5.70
2022-07-30T19:14:26.480Z,6.17
2022-07-30T19:16:59.188Z,6.27
2022-07-30T19:19:28.434Z,6.47
2022-07-30T19:21:56.997Z,7.07
2022-07-30T19:24:27.671Z,5.67
2022-07-30T19:26:56.937Z,6.23
2022-07-30T19:29:25.162Z,6.47
2022-07-30T19:31:53.376Z,6.03
2022-07-30T19:34:23.088Z,6.07
2022-07-30T19:36:51.449Z,6.20
2022-07-30T19:39:21.375Z,6.43
2022-07-30T19:41:51.051Z,6.00
2022-07-30T19:44:19.749Z,5.77
2022-07-30T19:46:48.669Z,5.87
2022-07-30T19:49:19.845Z,6.00
2022-07-30T19:52:22.800Z,6.27
2022-07-30T19:54:39.952Z,5.87
2022-07-30T19:57:08.062Z,6.43
2022-07-30T19:59:46.221Z,6.00
2022-07-30T20:02:24.623Z,5.63
2022-07-30T20:04:54.934Z,5.53
2022-07-30T20:07:27.563Z,5.70
2022-07-30T20:09:56.051Z,6.07
2022-07-30T20:12:24.495Z,6.13
2022-07-30T20:14:54.785Z,5.87
2022-07-30T20:17:23.909Z,6.00
2022-07-30T20:19:57.972Z,7.40
2022-07-30T20:22:29.961Z,7.00
2022-07-30T20:25:00.077Z,7.23
2022-07-30T20:27:36.030Z,7.80
2022-07-30T20:30:09.027Z,7.77
2022-07-30T20:32:40.577Z,7.70
2022-07-30T20:35:14.701Z,7.30
2022-07-30T20:37:55.201Z,7.20
2022-07-30T20:40:26.971Z,7.50
2022-07-30T20:42:55.801Z,7.00
2022-07-30T20:45:25.319Z,6.63
2022-07-30T20:48:08.415Z,7.00
2022-07-30T20:50:46.533Z,7.00
2022-07-30T20:53:19.781Z,7.10
2022-07-30T20:55:49.241Z,6.67
2022-07-30T20:58:17.721Z,6.40
2022-07-30T21:00:49.798Z,7.00
2022-07-30T21:03:21.527Z,6.23
2022-07-30T21:05:52.522Z,7.27
2022-07-30T21:08:25.250Z,7.00
2022-07-30T21:10:55.211Z,6.93
2022-07-30T21:13:26.248Z,6.67
2022-07-30T21:16:02.065Z,6.20
2022-07-30T21:18:42.908Z,7.13
2022-07-30T21:26:58.736Z,6.83
2022-07-30T21:29:28.841Z,7.87
2022-07-30T21:32:09.542Z,7.10
2022-07-30T21:34:40.162Z,7.80
2022-07-30T21:37:09.954Z,7.30
2022-07-30T21:39:40.369Z,6.90
2022-07-30T21:42:08.978Z,6.70
2022-07-30T21:44:37.553Z,7.23
2022-07-30T21:47:10.186Z,6.50
2022-07-30T21:49:39.260Z,7.10
2022-07-30T21:52:09.041Z,7.43
2022-07-30T21:54:48.270Z,6.70
2022-07-30T21:57:26.316Z,7.17
2022-07-30T21:59:55.429Z,7.33
2022-07-30T22:02:24.174Z,7.37
2022-07-30T22:04:52.449Z,8.07
2022-07-30T22:07:21.841Z,7.80
2022-07-30T22:09:51.563Z,8.60
2022-07-30T22:12:19.857Z,9.23
2022-07-30T22:14:49.379Z,8.77
2022-07-30T22:17:23.312Z,7.60
2022-07-30T22:20:08.835Z,7.77
2022-07-30T22:22:40.183Z,8.17
2022-07-30T22:25:11.147Z,7.63
2022-07-30T22:27:56.811Z,8.63
2022-07-30T22:30:27.205Z,7.50
2022-07-30T22:32:55.888Z,8.07
2022-07-30T22:35:32.326Z,8.43
2022-07-30T22:38:02.931Z,6.63
2022-07-30T22:40:32.991Z,8.07
2022-07-30T22:43:07.734Z,7.30
2022-07-30T22:45:48.615Z,7.70
2022-07-30T22:48:19.251Z,8.60
2022-07-30T22:50:54.476Z,7.80
2022-07-30T22:54:02.589Z,8.20
2022-07-30T22:56:15.779Z,7.77
2022-07-30T22:58:45.026Z,8.00
2022-07-30T23:01:16.871Z,7.90
2022-07-30T23:03:45.146Z,7.90
2022-07-30T23:06:16.456Z,8.40
2022-07-30T23:08:44.595Z,8.17
2022-07-30T23:11:14.181Z,8.20
2022-07-30T23:12:31.387Z,6.90
2022-07-30T23:12:31.781Z,7.17
2022-07-30T23:13:42.549Z,8.20
2022-07-30T23:16:10.781Z,8.77
2022-07-30T23:18:39.067Z,8.40
2022-07-30T23:21:07.314Z,8.83
2022-07-30T23:23:36.228Z,8.40
2022-07-30T23:26:05.126Z,8.70
2022-07-30T23:28:34.589Z,12.10
2022-07-30T23:31:03.505Z,8.13
2022-07-30T23:33:31.906Z,8.60
2022-07-30T23:36:01.031Z,7.97
2022-07-30T23:38:29.816Z,8.47
2022-07-30T23:41:01.279Z,7.97
2022-07-30T23:43:29.878Z,7.97
2022-07-30T23:45:59.458Z,7.83
2022-07-30T23:48:28.300Z,8.43
2022-07-30T23:50:56.536Z,8.27
2022-07-30T23:53:24.832Z,8.00
2022-07-30T23:55:53.333Z,8.30
2022-07-30T23:58:21.550Z,8.20
